createdAt,value
2023-05-12T00:00:56.175Z,10.30
2023-05-12T00:03:24.017Z,10.00
2023-05-12T00:05:50.877Z,11.10
2023-05-12T00:08:17.600Z,12.00
2023-05-12T00:10:44.294Z,10.40
2023-05-12T00:13:10.970Z,10.30
2023-05-12T00:15:37.679Z,9.60
2023-05-12T00:18:04.389Z,11.70
2023-05-12T00:20:31.477Z,11.20
2023-05-12T00:22:58.180Z,9.80
2023-05-12T00:25:24.838Z,10.00
2023-05-12T00:27:51.467Z,9.80
2023-05-12T00:30:18.464Z,9.80
2023-05-12T00:32:45.611Z,10.70
2023-05-12T00:35:12.257Z,10.20
2023-05-12T00:37:38.964Z,10.10
2023-05-12T00:40:05.982Z,10.00
2023-05-12T00:42:33.897Z,10.60
2023-05-12T00:45:00.511Z,10.20
2023-05-12T00:47:27.327Z,10.10
2023-05-12T00:49:54.604Z,10.00
2023-05-12T00:52:21.363Z,9.80
2023-05-12T00:54:48.546Z,10.10
2023-05-12T00:57:15.255Z,10.20
2023-05-12T00:59:41.867Z,10.20
2023-05-12T01:02:08.779Z,9.80
2023-05-12T01:04:35.872Z,9.70
2023-05-12T01:07:19.108Z,11.40
2023-05-12T01:09:45.784Z,10.70
2023-05-12T01:12:12.450Z,10.10
2023-05-12T01:14:39.400Z,10.10
2023-05-12T01:17:09.101Z,10.00
2023-05-12T01:19:39.607Z,11.70
2023-05-12T01:22:06.367Z,10.70
2023-05-12T01:24:34.508Z,9.90
2023-05-12T01:27:02.074Z,10.10
2023-05-12T01:29:28.718Z,10.20
2023-05-12T01:31:55.357Z,9.70
2023-05-12T01:34:21.973Z,10.20
2023-05-12T01:36:48.584Z,9.90
2023-05-12T01:39:15.285Z,10.10
2023-05-12T01:41:41.887Z,10.10
2023-05-12T01:44:08.696Z,10.00
2023-05-12T01:46:35.495Z,10.50
2023-05-12T01:49:02.192Z,12.10
2023-05-12T01:51:28.820Z,10.50
2023-05-12T01:53:55.523Z,10.10
2023-05-12T01:56:22.893Z,10.10
2023-05-12T02:03:44.752Z,10.40
2023-05-12T02:06:11.489Z,9.70
2023-05-12T02:08:38.220Z,10.00
2023-05-12T02:11:08.664Z,10.10
2023-05-12T02:13:35.494Z,9.80
2023-05-12T02:23:23.897Z,9.60
2023-05-12T02:25:50.779Z,10.40
2023-05-12T02:28:17.456Z,10.30
2023-05-12T02:30:50.783Z,10.40
2023-05-12T02:33:18.137Z,10.40
2023-05-12T02:35:44.949Z,12.30
2023-05-12T02:38:12.017Z,10.10
2023-05-12T02:40:38.684Z,11.70
2023-05-12T02:43:05.574Z,10.40
2023-05-12T02:45:32.263Z,10.30
2023-05-12T02:47:58.921Z,10.40
2023-05-12T02:50:25.684Z,10.70
2023-05-12T02:52:52.405Z,10.50
2023-05-12T02:55:19.115Z,11.40
2023-05-12T02:57:45.851Z,11.70
2023-05-12T03:00:12.683Z,10.10
2023-05-12T03:02:39.848Z,10.60
2023-05-12T03:05:06.883Z,11.60
2023-05-12T03:07:33.629Z,10.60
2023-05-12T03:10:01.606Z,11.50
2023-05-12T03:12:31.477Z,10.10
2023-05-12T03:14:58.107Z,10.30
2023-05-12T03:17:24.846Z,10.10
2023-05-12T03:19:51.496Z,10.40
2023-05-12T03:22:18.199Z,10.30
2023-05-12T03:24:44.926Z,12.00
2023-05-12T03:27:11.555Z,10.20
2023-05-12T03:29:38.205Z,10.10
2023-05-12T03:32:05.325Z,10.30
2023-05-12T03:34:31.971Z,10.50
2023-05-12T03:36:58.646Z,11.70
2023-05-12T03:39:25.446Z,10.30
2023-05-12T03:41:52.133Z,10.10
2023-05-12T03:44:18.900Z,10.10
2023-05-12T03:46:45.696Z,10.80
2023-05-12T03:49:12.692Z,12.20
2023-05-12T03:51:39.375Z,12.10
2023-05-12T03:54:06.054Z,12.20
2023-05-12T03:56:32.731Z,10.10
2023-05-12T03:58:59.404Z,12.20
2023-05-12T04:01:26.075Z,10.00
2023-05-12T04:03:52.990Z,12.10
2023-05-12T04:06:19.751Z,12.40
2023-05-12T04:08:46.399Z,10.10
2023-05-12T04:11:14.066Z,10.10
2023-05-12T04:13:40.716Z,11.70
2023-05-12T04:16:07.515Z,12.40
2023-05-12T04:18:35.808Z,10.60
2023-05-12T04:21:02.938Z,11.10
2023-05-12T04:23:29.583Z,10.30
2023-05-12T04:25:56.542Z,12.10
2023-05-12T04:28:23.254Z,10.30
2023-05-12T04:30:49.954Z,12.50
2023-05-12T04:33:16.605Z,12.60
2023-05-12T04:35:43.297Z,10.30
2023-05-12T04:38:09.885Z,10.30
2023-05-12T04:40:36.545Z,10.20
2023-05-12T04:43:03.211Z,10.50
2023-05-12T04:45:30.256Z,10.30
2023-05-12T04:47:57.003Z,10.40
2023-05-12T04:50:23.668Z,10.20
2023-05-12T04:52:50.329Z,11.80
2023-05-12T04:55:17.124Z,10.30
2023-05-12T04:57:43.925Z,11.90
2023-05-12T05:00:10.941Z,11.90
2023-05-12T05:02:37.707Z,10.90
2023-05-12T05:05:04.566Z,12.40
2023-05-12T05:07:31.209Z,10.90
2023-05-12T05:09:57.894Z,10.40
2023-05-12T05:12:25.699Z,12.40
2023-05-12T05:14:52.455Z,10.40
2023-05-12T05:17:19.156Z,12.30
2023-05-12T05:19:57.557Z,11.40
2023-05-12T05:22:25.834Z,12.50
2023-05-12T05:24:52.672Z,12.20
2023-05-12T05:27:19.376Z,11.20
2023-05-12T05:29:46.059Z,10.60
2023-05-12T05:32:12.761Z,10.80
2023-05-12T05:34:39.495Z,12.90
2023-05-12T05:37:06.210Z,12.70
2023-05-12T05:39:32.888Z,13.10
2023-05-12T05:41:59.550Z,12.30
2023-05-12T05:44:26.235Z,11.60
2023-05-12T05:46:53.013Z,13.40
2023-05-12T05:51:46.694Z,11.50
2023-05-12T05:54:13.334Z,13.20
2023-05-12T05:56:40.018Z,13.10
2023-05-12T05:59:06.740Z,11.40
2023-05-12T06:01:33.521Z,11.80
2023-05-12T06:04:00.449Z,11.80
2023-05-12T06:06:27.229Z,13.10
2023-05-12T06:08:56.076Z,11.70
2023-05-12T06:11:22.946Z,13.70
2023-05-12T06:13:49.828Z,11.70
2023-05-12T06:16:16.600Z,11.40
2023-05-12T06:18:43.394Z,13.40
2023-05-12T06:21:10.119Z,12.50
2023-05-12T06:23:36.786Z,11.50
2023-05-12T06:26:04.114Z,11.60
2023-05-12T06:28:30.856Z,13.00
2023-05-12T06:30:59.466Z,11.90
2023-05-12T06:33:26.729Z,13.40
2023-05-12T06:35:53.465Z,11.90
2023-05-12T06:38:20.135Z,13.20
2023-05-12T06:40:46.761Z,13.80
2023-05-12T06:43:13.471Z,13.80
2023-05-12T06:45:40.202Z,14.30
2023-05-12T06:48:07.000Z,13.80
2023-05-12T06:50:33.659Z,12.30
2023-05-12T06:53:00.308Z,13.40
2023-05-12T06:55:26.987Z,13.70
2023-05-12T06:57:56.790Z,12.30
2023-05-12T07:00:23.838Z,12.70
2023-05-12T07:15:09.685Z,12.40
2023-05-12T07:17:36.467Z,12.00
2023-05-12T07:20:05.013Z,12.70
2023-05-12T07:22:32.690Z,12.70
2023-05-12T07:24:59.521Z,14.20
2023-05-12T07:27:26.229Z,14.20
2023-05-12T08:16:28.995Z,14.10
2023-05-12T08:18:55.689Z,15.50
2023-05-12T08:21:22.406Z,15.50
2023-05-12T08:23:49.099Z,15.40
2023-05-12T08:26:15.750Z,15.60
2023-05-12T08:28:42.393Z,15.50
2023-05-12T08:31:09.128Z,15.60
2023-05-12T08:33:36.290Z,14.50
2023-05-12T08:36:03.168Z,13.90
2023-05-12T08:38:30.017Z,14.30
2023-05-12T08:41:06.277Z,15.50
2023-05-12T08:43:44.116Z,14.10
2023-05-12T08:46:11.616Z,14.20
2023-05-12T08:48:39.076Z,16.10
2023-05-12T08:51:13.245Z,16.20
2023-05-12T08:53:40.601Z,14.40
2023-05-12T08:58:41.966Z,14.50
2023-05-12T09:01:11.311Z,16.10
2023-05-12T09:03:38.099Z,15.70
2023-05-12T09:06:06.099Z,15.90
2023-05-12T09:08:34.014Z,15.30
2023-05-12T09:11:01.165Z,16.00
2023-05-12T09:13:48.146Z,15.40
2023-05-12T09:16:15.260Z,14.40
2023-05-12T09:18:52.894Z,15.60
2023-05-12T09:23:52.950Z,14.70
2023-05-12T09:26:19.799Z,14.60
2023-05-12T09:31:26.645Z,15.10
2023-05-12T09:33:53.331Z,15.20
2023-05-12T09:36:23.654Z,16.70
2023-05-12T09:41:22.675Z,15.40
2023-05-12T09:48:47.294Z,15.70
2023-05-12T09:51:17.265Z,17.00
2023-05-12T09:53:44.487Z,17.40
2023-05-12T09:56:12.541Z,17.50
2023-05-12T09:58:43.925Z,17.30
2023-05-12T10:01:22.564Z,17.40
2023-05-12T10:03:54.995Z,16.30
2023-05-12T10:06:30.204Z,16.10
2023-05-12T10:09:14.336Z,16.00
2023-05-12T10:11:41.417Z,15.80
2023-05-12T10:16:36.695Z,15.50
2023-05-12T10:19:04.553Z,16.90
2023-05-12T10:21:31.911Z,16.80
2023-05-12T10:23:59.065Z,17.00
2023-05-12T10:26:26.130Z,18.00
2023-05-12T10:33:57.775Z,16.90
2023-05-12T10:41:35.239Z,17.80
2023-05-12T10:44:01.940Z,17.40
2023-05-12T10:46:28.740Z,17.60
2023-05-12T10:48:59.677Z,17.10
2023-05-12T10:51:28.568Z,17.50
2023-05-12T10:54:05.824Z,17.50
2023-05-12T10:56:38.752Z,17.70
2023-05-12T11:01:33.431Z,18.10
2023-05-12T11:06:30.591Z,18.30
2023-05-12T11:08:58.758Z,18.30
2023-05-12T11:11:25.903Z,18.00
2023-05-12T11:13:52.608Z,18.20
2023-05-12T11:16:20.561Z,18.50
2023-05-12T11:18:47.252Z,18.20
2023-05-12T11:21:14.475Z,18.90
2023-05-12T11:33:29.639Z,19.70
2023-05-12T11:35:56.653Z,19.50
2023-05-12T11:38:24.655Z,18.40
2023-05-12T11:40:51.451Z,18.80
2023-05-12T11:43:20.621Z,17.90
2023-05-12T11:45:47.636Z,18.90
2023-05-12T11:48:14.852Z,17.60
2023-05-12T11:50:45.037Z,17.90
2023-05-12T11:53:14.653Z,18.60
2023-05-12T11:55:51.327Z,18.40
2023-05-12T12:00:45.062Z,17.00
2023-05-12T12:03:12.868Z,16.70
2023-05-12T12:05:40.427Z,17.60
2023-05-12T12:08:13.316Z,17.60
2023-05-12T12:10:43.462Z,18.20
2023-05-12T12:13:10.235Z,18.40
2023-05-12T12:15:37.087Z,19.20
2023-05-12T12:18:04.100Z,18.90
2023-05-12T12:20:30.883Z,18.10
2023-05-12T12:22:57.589Z,17.30
2023-05-12T12:32:47.044Z,16.50
2023-05-12T12:35:13.884Z,16.90
2023-05-12T12:37:40.933Z,16.50
2023-05-12T12:40:08.319Z,17.10
2023-05-12T12:42:36.021Z,16.40
2023-05-12T12:45:05.872Z,17.30
2023-05-12T12:47:32.641Z,16.50
2023-05-12T12:49:59.880Z,16.80
2023-05-12T12:52:26.894Z,17.20
2023-05-12T12:54:53.646Z,16.20
2023-05-12T12:57:22.121Z,15.70
2023-05-12T12:59:49.585Z,15.70
2023-05-12T13:02:16.488Z,14.90
2023-05-12T13:04:43.318Z,16.70
2023-05-12T13:07:10.084Z,15.20
2023-05-12T13:09:36.922Z,16.80
2023-05-12T13:12:03.842Z,17.30
2023-05-12T13:14:30.613Z,16.20
2023-05-12T13:16:57.415Z,16.20
2023-05-12T13:19:24.165Z,16.70
2023-05-12T13:21:50.879Z,16.50
2023-05-12T13:24:17.603Z,17.00
2023-05-12T13:26:44.273Z,16.60
2023-05-12T13:29:11.009Z,17.50
2023-05-12T13:31:38.782Z,17.00
2023-05-12T13:36:34.629Z,15.90
2023-05-12T13:39:02.773Z,16.50
2023-05-12T13:41:29.811Z,16.40
2023-05-12T13:43:56.461Z,16.60
2023-05-12T13:46:23.368Z,15.70
2023-05-12T13:48:52.393Z,16.50
2023-05-12T13:51:19.746Z,15.90
2023-05-12T13:53:46.530Z,15.70
2023-05-12T13:56:14.192Z,16.60
2023-05-12T13:58:40.881Z,16.70
2023-05-12T14:01:08.737Z,16.00
2023-05-12T14:03:35.648Z,17.00
2023-05-12T14:06:02.651Z,16.90
2023-05-12T14:08:29.396Z,16.10
2023-05-12T14:10:56.427Z,17.10
2023-05-12T14:13:24.576Z,16.70
2023-05-12T14:15:51.749Z,16.70
2023-05-12T14:18:19.002Z,17.00
2023-05-12T14:20:45.956Z,17.20
2023-05-12T14:23:12.716Z,17.10
2023-05-12T14:25:39.700Z,18.40
2023-05-12T14:28:06.494Z,17.00
2023-05-12T14:30:35.301Z,17.20
2023-05-12T14:33:02.648Z,17.20
2023-05-12T14:35:29.777Z,17.40
2023-05-12T14:37:56.962Z,17.50
2023-05-12T14:40:23.876Z,17.30
2023-05-12T14:42:50.727Z,17.40
2023-05-12T14:45:17.594Z,17.60
2023-05-12T14:47:44.519Z,17.10
2023-05-12T14:50:11.414Z,17.20
2023-05-12T14:52:41.069Z,17.10
2023-05-12T14:55:17.551Z,15.90
2023-05-12T14:57:44.568Z,17.10
2023-05-12T15:00:12.350Z,17.80
2023-05-12T15:02:39.867Z,16.80
2023-05-12T15:05:07.319Z,17.10
2023-05-12T15:07:34.201Z,16.80
2023-05-12T15:10:01.133Z,17.90
2023-05-12T15:12:27.890Z,17.20
2023-05-12T15:14:56.300Z,17.70
2023-05-12T15:17:23.284Z,16.70
2023-05-12T15:19:50.250Z,17.20
2023-05-12T15:22:16.966Z,17.20
2023-05-12T15:24:43.735Z,17.30
2023-05-12T15:27:10.557Z,17.20
2023-05-12T15:29:40.764Z,17.70
2023-05-12T15:32:07.856Z,16.60
2023-05-12T15:34:34.868Z,17.40
2023-05-12T15:37:01.636Z,16.70
2023-05-12T15:39:28.393Z,16.80
2023-05-12T15:41:55.142Z,17.70
2023-05-12T15:44:21.814Z,17.00
2023-05-12T15:46:48.566Z,17.70
2023-05-12T15:49:15.264Z,18.10
2023-05-12T15:51:41.971Z,17.50
2023-05-12T15:54:09.501Z,17.40
2023-05-12T15:56:36.696Z,17.30
2023-05-12T15:59:05.205Z,18.60
2023-05-12T16:01:31.997Z,17.70
2023-05-12T16:03:59.130Z,18.50
2023-05-12T16:06:25.957Z,17.70
2023-05-12T16:08:53.240Z,17.60
2023-05-12T16:11:20.016Z,17.40
2023-05-12T16:13:47.030Z,17.60
2023-05-12T16:16:14.112Z,17.60
2023-05-12T16:18:40.837Z,16.90
2023-05-12T16:21:08.346Z,17.40
2023-05-12T16:23:35.183Z,16.90
2023-05-12T16:26:01.878Z,17.80
2023-05-12T16:28:28.704Z,16.80
2023-05-12T16:30:55.555Z,18.00
2023-05-12T16:33:22.257Z,17.00
2023-05-12T16:35:49.439Z,16.90
2023-05-12T16:38:16.467Z,17.60
2023-05-12T16:40:43.145Z,17.30
2023-05-12T16:43:09.837Z,17.10
2023-05-12T16:45:36.542Z,16.40
2023-05-12T16:48:03.348Z,16.80
2023-05-12T16:50:29.993Z,16.40
2023-05-12T16:52:56.646Z,17.10
2023-05-12T16:55:23.884Z,17.40
2023-05-12T16:57:51.084Z,16.40
2023-05-12T17:00:18.250Z,17.00
2023-05-12T17:02:45.112Z,16.30
2023-05-12T17:05:12.436Z,17.20
2023-05-12T17:07:39.117Z,17.10
2023-05-12T17:10:06.737Z,16.20
2023-05-12T17:12:33.525Z,16.30
2023-05-12T17:15:07.563Z,16.40
2023-05-12T17:17:34.669Z,16.60
2023-05-12T17:20:01.658Z,16.40
2023-05-12T17:22:28.473Z,16.20
2023-05-12T17:24:55.149Z,16.10
2023-05-12T17:27:22.180Z,15.00
2023-05-12T17:29:49.396Z,16.50
2023-05-12T17:32:16.049Z,16.40
2023-05-12T17:34:42.736Z,16.60
2023-05-12T17:37:09.441Z,16.90
2023-05-12T17:39:38.125Z,16.60
2023-05-12T17:42:05.006Z,17.00
2023-05-12T17:44:31.715Z,15.90
2023-05-12T17:46:58.491Z,17.00
2023-05-12T17:49:25.143Z,16.90
2023-05-12T17:51:53.694Z,16.80
2023-05-12T17:54:20.530Z,16.60
2023-05-12T17:56:47.215Z,15.60
2023-05-12T17:59:13.917Z,17.00
2023-05-12T18:01:40.685Z,15.90
2023-05-12T18:04:07.345Z,15.80
2023-05-12T18:06:34.029Z,16.60
2023-05-12T18:09:00.675Z,14.30
2023-05-12T18:11:29.143Z,15.50
2023-05-12T18:13:56.065Z,15.00
2023-05-12T18:16:29.155Z,15.80
2023-05-12T18:18:56.533Z,15.80
2023-05-12T18:21:23.351Z,14.90
2023-05-12T18:23:50.005Z,16.00
2023-05-12T18:26:16.967Z,14.40
2023-05-12T18:28:43.641Z,14.60
2023-05-12T18:31:15.624Z,15.10
2023-05-12T18:33:46.015Z,13.70
2023-05-12T18:36:12.940Z,15.40
2023-05-12T18:38:40.023Z,15.00
2023-05-12T18:41:07.202Z,14.90
2023-05-12T18:43:34.917Z,14.20
2023-05-12T18:46:01.948Z,14.20
2023-05-12T18:48:28.668Z,14.80
2023-05-12T18:50:55.767Z,14.90
2023-05-12T18:53:22.752Z,15.20
2023-05-12T18:55:50.287Z,14.80
2023-05-12T18:58:17.053Z,15.20
2023-05-12T19:03:12.838Z,13.00
2023-05-12T19:05:44.449Z,13.20
2023-05-12T19:08:11.457Z,12.90
2023-05-12T19:10:39.914Z,13.80
2023-05-12T19:13:06.933Z,14.30
2023-05-12T19:15:33.704Z,13.40
2023-05-12T19:18:00.484Z,13.30
2023-05-12T19:20:28.254Z,12.80
2023-05-12T19:22:54.994Z,13.40
2023-05-12T19:25:22.101Z,12.00
2023-05-12T19:27:49.038Z,12.20
2023-05-12T19:30:15.727Z,12.60
2023-05-12T19:32:42.855Z,12.70
2023-05-12T19:35:12.508Z,10.90
2023-05-12T19:37:39.461Z,11.50
2023-05-12T19:40:06.558Z,12.20
2023-05-12T19:42:33.190Z,11.20
2023-05-12T19:45:00.801Z,10.90
2023-05-12T19:47:28.083Z,12.00
2023-05-12T19:49:55.033Z,11.30
2023-05-12T19:52:24.448Z,11.20
2023-05-12T19:54:51.617Z,11.60
2023-05-12T19:57:18.854Z,12.00
2023-05-12T19:59:45.687Z,12.30
2023-05-12T20:02:13.452Z,10.90
2023-05-12T20:04:40.191Z,11.90
2023-05-12T20:07:06.885Z,10.40
2023-05-12T20:09:33.550Z,12.10
2023-05-12T20:12:00.507Z,10.20
2023-05-12T20:14:27.185Z,11.00
2023-05-12T20:16:54.980Z,9.50
2023-05-12T20:19:21.642Z,10.60
2023-05-12T20:21:48.299Z,10.60
2023-05-12T20:24:15.025Z,11.60
2023-05-12T20:26:41.716Z,10.50
2023-05-12T20:29:08.371Z,11.90
2023-05-12T20:31:35.212Z,9.30
2023-05-12T20:34:02.178Z,9.40
2023-05-12T20:36:28.879Z,9.60
2023-05-12T20:38:55.516Z,9.90
2023-05-12T20:41:22.158Z,9.90
2023-05-12T20:43:49.057Z,9.90
2023-05-12T20:46:15.780Z,9.70
2023-05-12T20:48:42.496Z,9.90
2023-05-12T20:51:12.854Z,9.60
2023-05-12T20:53:39.605Z,9.90
2023-05-12T20:56:08.218Z,9.90
2023-05-12T20:58:35.299Z,9.80
2023-05-12T21:01:01.991Z,9.60
2023-05-12T21:03:29.243Z,9.50
2023-05-12T21:05:55.984Z,8.20
2023-05-12T21:08:22.702Z,9.50
2023-05-12T21:10:49.398Z,9.50
2023-05-12T21:13:16.139Z,9.90
2023-05-12T21:15:42.812Z,9.40
2023-05-12T21:18:09.515Z,9.30
2023-05-12T21:20:36.685Z,9.30
2023-05-12T21:23:03.367Z,9.40
2023-05-12T21:25:30.047Z,9.50
2023-05-12T21:27:56.726Z,9.50
2023-05-12T21:30:23.541Z,9.60
2023-05-12T21:35:17.415Z,9.10
2023-05-12T21:37:45.202Z,9.10
2023-05-12T21:40:12.125Z,11.10
2023-05-12T21:42:38.851Z,9.20
2023-05-12T21:45:05.793Z,10.80
2023-05-12T21:47:32.658Z,9.30
2023-05-12T21:49:59.358Z,10.80
2023-05-12T21:52:26.002Z,8.90
2023-05-12T21:54:52.706Z,9.00
2023-05-12T21:57:19.407Z,8.10
2023-05-12T21:59:46.082Z,8.50
2023-05-12T22:02:13.232Z,10.90
2023-05-12T22:04:40.331Z,9.10
2023-05-12T22:07:07.736Z,10.70
2023-05-12T22:09:34.406Z,9.20
2023-05-12T22:12:01.005Z,9.00
2023-05-12T22:14:27.680Z,9.10
2023-05-12T22:16:54.399Z,8.40
2023-05-12T22:19:21.188Z,8.90
2023-05-12T22:21:47.822Z,9.00
2023-05-12T22:24:14.904Z,8.10
2023-05-12T22:26:41.639Z,10.50
2023-05-12T22:29:08.310Z,7.60
2023-05-12T22:31:35.018Z,8.10
2023-05-12T22:34:01.802Z,10.10
2023-05-12T22:36:28.481Z,8.30
2023-05-12T22:38:55.270Z,7.90
2023-05-12T22:41:21.938Z,8.00
2023-05-12T22:43:48.611Z,9.90
2023-05-12T22:46:15.294Z,7.90
2023-05-12T22:48:42.678Z,7.80
2023-05-12T22:51:09.763Z,8.40
2023-05-12T22:53:36.594Z,8.30
2023-05-12T22:56:03.689Z,8.30
2023-05-12T22:58:30.541Z,8.10
2023-05-12T23:00:57.442Z,10.90
2023-05-12T23:03:24.236Z,9.70
2023-05-12T23:05:51.018Z,8.80
2023-05-12T23:08:17.782Z,10.90
2023-05-12T23:10:44.427Z,8.40
2023-05-12T23:13:11.026Z,9.00
2023-05-12T23:15:37.654Z,8.30
2023-05-12T23:18:04.325Z,7.80
2023-05-12T23:20:31.826Z,8.80
2023-05-12T23:22:58.520Z,10.30
2023-05-12T23:25:25.176Z,8.80
2023-05-12T23:27:51.852Z,8.80
2023-05-12T23:30:18.641Z,8.50
2023-05-12T23:32:45.700Z,10.40
2023-05-12T23:35:12.486Z,8.80
2023-05-12T23:37:39.154Z,8.00
2023-05-12T23:40:06.397Z,8.70
2023-05-12T23:42:33.094Z,9.00
2023-05-12T23:44:59.753Z,8.80
2023-05-12T23:47:26.512Z,8.70
2023-05-12T23:49:53.199Z,8.60
2023-05-12T23:52:19.899Z,8.60
2023-05-12T23:54:46.542Z,8.30
2023-05-12T23:57:13.253Z,7.70
2023-05-12T23:59:39.944Z,8.00
